createdAt,value
2023-04-08T00:01:43.522Z,101167.03
2023-04-08T00:04:46.087Z,101177.09
2023-04-08T00:07:48.541Z,101182.34
2023-04-08T00:10:51.297Z,101185.25
2023-04-08T00:13:53.953Z,101170.38
2023-04-08T00:16:56.422Z,101184.22
2023-04-08T00:19:58.851Z,101186.59
2023-04-08T00:23:01.235Z,101181.25
2023-04-08T00:26:03.769Z,101195.81
2023-04-08T00:29:06.332Z,101192.16
2023-04-08T00:32:08.997Z,101193.47
2023-04-08T00:35:13.028Z,101205.16
2023-04-08T00:38:15.915Z,101208.94
2023-04-08T00:41:18.304Z,101213.13
2023-04-08T00:47:52.982Z,101205.56
2023-04-08T00:50:55.672Z,101200.63
2023-04-08T00:53:58.388Z,101208.34
2023-04-08T00:57:01.320Z,101214.78
2023-04-08T01:00:08.475Z,101223.31
2023-04-08T01:03:28.432Z,101233.34
2023-04-08T01:06:35.072Z,101227.75
2023-04-08T01:09:40.059Z,101227.97
2023-04-08T01:12:45.357Z,101236.28
2023-04-08T01:15:47.977Z,101232.94
2023-04-08T01:18:51.909Z,101227.59
2023-04-08T01:21:58.069Z,101223.91
2023-04-08T01:25:04.931Z,101240.88
2023-04-08T01:28:12.744Z,101245.09
2023-04-08T01:31:15.665Z,101247.38
2023-04-08T01:34:19.857Z,101251.88
2023-04-08T01:37:22.901Z,101238.16
2023-04-08T01:40:29.680Z,101242.94
2023-04-08T01:43:32.884Z,101246.88
2023-04-08T01:46:35.949Z,101247.06
2023-04-08T01:49:38.924Z,101251.69
2023-04-08T01:52:44.910Z,101250.44
2023-04-08T01:55:51.111Z,101252.94
2023-04-08T01:58:54.850Z,101255.63
2023-04-08T02:01:57.851Z,101260.44
2023-04-08T02:05:00.368Z,101256.91
2023-04-08T02:08:02.683Z,101259.84
2023-04-08T02:11:05.295Z,101261.28
2023-04-08T02:14:07.998Z,101256.13
2023-04-08T02:17:15.073Z,101255.69
2023-04-08T02:20:19.416Z,101260.28
2023-04-08T02:23:23.900Z,101258.44
2023-04-08T02:26:26.935Z,101261.09
2023-04-08T02:29:32.893Z,101261.28
2023-04-08T02:32:36.318Z,101274.13
2023-04-08T02:35:41.256Z,101260.59
2023-04-08T02:38:50.419Z,101269.94
2023-04-08T02:41:53.025Z,101264.75
2023-04-08T02:44:58.372Z,101279.47
2023-04-08T02:48:01.674Z,101275.56
2023-04-08T02:51:04.312Z,101276.59
2023-04-08T02:54:06.673Z,101284.28
2023-04-08T02:57:09.133Z,101294.25
2023-04-08T03:00:12.215Z,101280.78
2023-04-08T03:03:14.715Z,101288.03
2023-04-08T03:06:17.326Z,101297.38
2023-04-08T03:09:19.917Z,101269.34
2023-04-08T03:12:23.265Z,101296.09
2023-04-08T03:15:25.839Z,101294.25
2023-04-08T03:18:28.230Z,101297.97
2023-04-08T03:21:32.349Z,101304.84
2023-04-08T03:24:34.710Z,101308.72
2023-04-08T03:27:36.969Z,101295.63
2023-04-08T03:30:39.210Z,101309.53
2023-04-08T03:33:41.579Z,101309.13
2023-04-08T03:36:44.259Z,101308.28
2023-04-08T03:39:46.850Z,101312.25
2023-04-08T03:42:49.316Z,101317.81
2023-04-08T03:45:51.800Z,101327.31
2023-04-08T03:48:54.280Z,101328.72
2023-04-08T03:51:56.842Z,101332.00
2023-04-08T03:54:59.239Z,101332.84
2023-04-08T03:58:01.632Z,101335.53
2023-04-08T04:01:04.039Z,101338.03
2023-04-08T04:04:07.015Z,101338.41
2023-04-08T04:07:09.605Z,101340.19
2023-04-08T04:10:12.259Z,101337.50
2023-04-08T04:13:14.618Z,101343.94
2023-04-08T04:16:17.158Z,101346.81
2023-04-08T04:19:19.554Z,101345.00
2023-04-08T04:22:21.936Z,101353.09
2023-04-08T04:25:25.952Z,101342.53
2023-04-08T04:28:28.280Z,101357.25
2023-04-08T04:31:30.955Z,101356.75
2023-04-08T04:34:33.655Z,101366.38
2023-04-08T04:37:36.581Z,101369.88
2023-04-08T04:40:39.851Z,101373.28
2023-04-08T04:43:42.451Z,101376.75
2023-04-08T04:46:45.068Z,101377.22
2023-04-08T04:49:47.779Z,101370.41
2023-04-08T04:52:50.194Z,101383.47
2023-04-08T04:55:52.887Z,101386.00
2023-04-08T04:58:55.318Z,101347.44
2023-04-08T05:01:58.021Z,101390.25
2023-04-08T05:05:00.633Z,101387.09
2023-04-08T05:08:03.087Z,101381.69
2023-04-08T05:11:05.614Z,101393.69
2023-04-08T05:14:08.437Z,101387.44
2023-04-08T05:17:11.188Z,101308.69
2023-04-08T05:20:16.416Z,101403.63
2023-04-08T05:23:20.027Z,101404.69
2023-04-08T05:26:22.603Z,101400.50
2023-04-08T05:29:25.274Z,101420.13
2023-04-08T05:32:28.001Z,101413.22
2023-04-08T05:35:30.438Z,101414.31
2023-04-08T05:38:32.931Z,101416.59
2023-04-08T05:41:35.509Z,101417.53
2023-04-08T05:44:38.884Z,101422.34
2023-04-08T05:47:41.506Z,101417.34
2023-04-08T05:50:43.991Z,101416.06
2023-04-08T05:53:47.245Z,101424.06
2023-04-08T05:56:49.735Z,101428.50
2023-04-08T05:59:53.506Z,101423.31
2023-04-08T06:02:56.245Z,101427.16
2023-04-08T06:05:58.712Z,101429.97
2023-04-08T06:09:01.255Z,101436.06
2023-04-08T06:12:03.709Z,101439.22
2023-04-08T06:15:07.664Z,101431.91
2023-04-08T06:18:09.947Z,101437.34
2023-04-08T06:21:12.339Z,101450.72
2023-04-08T06:24:14.728Z,101441.53
2023-04-08T06:27:17.296Z,101462.09
2023-04-08T06:30:19.724Z,101463.91
2023-04-08T06:33:22.056Z,101468.03
2023-04-08T06:36:24.391Z,101474.53
2023-04-08T06:39:26.678Z,101478.47
2023-04-08T06:42:29.157Z,101476.50
2023-04-08T06:45:54.037Z,101477.53
2023-04-08T06:48:56.734Z,101484.25
2023-04-08T06:51:59.094Z,101485.53
2023-04-08T06:55:01.843Z,101476.72
2023-04-08T06:58:04.259Z,101489.38
2023-04-08T07:01:06.865Z,101494.13
2023-04-08T07:04:09.281Z,101492.69
2023-04-08T07:07:11.622Z,101496.28
2023-04-08T07:10:14.225Z,101507.06
2023-04-08T07:13:17.575Z,101504.97
2023-04-08T07:16:19.990Z,101510.09
2023-04-08T07:19:24.559Z,101503.91
2023-04-08T07:22:27.076Z,101512.47
2023-04-08T07:25:29.380Z,101517.16
2023-04-08T07:28:32.392Z,101521.41
2023-04-08T07:31:34.745Z,101515.00
2023-04-08T07:34:37.102Z,101519.22
2023-04-08T07:37:39.851Z,101525.38
2023-04-08T07:40:42.220Z,101519.59
2023-04-08T07:43:44.528Z,101530.25
2023-04-08T07:46:50.966Z,101524.53
2023-04-08T07:49:54.722Z,101525.34
2023-04-08T07:52:57.057Z,101524.63
2023-04-08T07:55:59.438Z,101523.34
2023-04-08T07:59:02.170Z,101534.13
2023-04-08T08:02:04.602Z,101520.28
2023-04-08T08:05:07.969Z,101536.09
2023-04-08T08:08:13.671Z,101531.41
2023-04-08T08:11:16.234Z,101547.09
2023-04-08T08:14:18.736Z,101538.69
2023-04-08T08:17:21.885Z,101540.56
2023-04-08T08:20:24.583Z,101540.84
2023-04-08T08:23:27.279Z,101508.22
2023-04-08T08:26:29.994Z,101534.84
2023-04-08T08:29:32.547Z,101546.75
2023-04-08T08:32:34.996Z,101541.13
2023-04-08T08:35:37.857Z,101548.25
2023-04-08T08:38:40.730Z,101543.44
2023-04-08T13:39:54.375Z,101498.28
2023-04-08T13:42:56.810Z,101491.22
2023-04-08T13:45:59.695Z,101497.56
2023-04-08T13:49:03.514Z,101502.94
2023-04-08T13:52:05.970Z,101502.09
2023-04-08T13:55:09.001Z,101497.28
2023-04-08T13:58:22.939Z,101487.22
2023-04-08T14:01:26.906Z,101493.28
2023-04-08T14:04:29.755Z,101490.88
2023-04-08T14:07:32.647Z,101498.06
2023-04-08T14:10:35.401Z,101494.66
2023-04-08T14:13:38.214Z,101490.25
2023-04-08T14:16:41.908Z,101475.78
2023-04-08T14:19:44.555Z,101481.91
2023-04-08T14:22:47.301Z,101484.94
2023-04-08T14:25:49.663Z,101489.31
2023-04-08T14:28:52.591Z,101480.56
2023-04-08T14:31:55.366Z,101483.47
2023-04-08T14:34:57.892Z,101475.25
2023-04-08T14:38:00.481Z,101473.13
2023-04-08T14:41:02.930Z,101467.47
2023-04-08T14:44:05.670Z,101462.41
2023-04-08T14:47:08.436Z,101462.97
2023-04-08T14:50:11.177Z,101456.63
2023-04-08T14:53:14.314Z,101453.34
2023-04-08T14:56:17.443Z,101459.31
2023-04-08T14:59:20.787Z,101448.03
2023-04-08T15:02:24.100Z,101452.28
2023-04-08T15:05:26.893Z,101452.22
2023-04-08T15:08:29.666Z,101448.38
2023-04-08T15:11:32.079Z,101461.78
2023-04-08T15:14:34.789Z,101457.19
2023-04-08T15:17:37.738Z,101448.97
2023-04-08T15:20:40.423Z,101445.78
2023-04-08T15:23:43.765Z,101440.78
2023-04-08T15:26:46.509Z,101442.75
2023-04-08T15:29:49.706Z,101451.63
2023-04-08T15:32:52.822Z,101448.06
2023-04-08T15:35:56.170Z,101442.03
2023-04-08T15:38:58.860Z,101449.22
2023-04-08T15:42:01.674Z,101457.75
2023-04-08T15:45:05.383Z,101451.44
2023-04-08T15:48:07.975Z,101452.53
2023-04-08T15:51:12.794Z,101458.31
2023-04-08T15:54:15.759Z,101435.59
2023-04-08T15:57:18.285Z,101439.13
2023-04-08T16:00:21.021Z,101447.09
2023-04-08T16:03:23.745Z,101449.31
2023-04-08T16:06:27.025Z,101446.34
2023-04-08T16:09:30.623Z,101440.00
2023-04-08T16:12:33.348Z,101453.19
2023-04-08T16:15:36.264Z,101432.34
2023-04-08T16:18:39.394Z,101460.84
2023-04-08T16:21:42.112Z,101453.44
2023-04-08T16:24:44.760Z,101463.88
2023-04-08T16:27:48.050Z,101458.09
2023-04-08T16:30:50.548Z,101460.59
2023-04-08T16:33:52.973Z,101465.47
2023-04-08T16:36:55.648Z,101459.41
2023-04-08T16:39:58.444Z,101444.88
2023-04-08T16:43:01.852Z,101462.88
2023-04-08T16:46:16.541Z,101464.94
2023-04-08T16:49:18.958Z,101461.97
2023-04-08T16:52:21.813Z,101462.72
2023-04-08T16:55:24.455Z,101464.81
2023-04-08T16:58:26.964Z,101469.09
2023-04-08T17:01:29.924Z,101470.75
2023-04-08T17:04:32.819Z,101477.28
2023-04-08T17:07:35.389Z,101478.28
2023-04-08T17:10:37.816Z,101483.34
2023-04-08T17:13:42.098Z,101479.28
2023-04-08T17:16:44.721Z,101485.09
2023-04-08T17:19:47.337Z,101483.88
2023-04-08T17:22:50.091Z,101475.47
2023-04-08T17:25:54.060Z,101479.06
2023-04-08T17:28:56.789Z,101499.66
2023-04-08T17:31:59.232Z,101500.94
2023-04-08T17:35:02.974Z,101500.19
2023-04-08T17:38:05.706Z,101498.53
2023-04-08T17:41:08.439Z,101491.25
2023-04-08T17:44:11.125Z,101503.16
2023-04-08T17:47:13.557Z,101503.31
2023-04-08T17:50:18.282Z,101511.66
2023-04-08T17:53:20.997Z,101509.97
2023-04-08T17:56:23.705Z,101507.75
2023-04-08T17:59:26.536Z,101516.88
2023-04-08T18:02:29.252Z,101491.88
2023-04-08T18:05:32.674Z,101520.25
2023-04-08T18:08:35.959Z,101522.03
2023-04-08T18:11:38.326Z,101524.88
2023-04-08T18:14:41.022Z,101530.78
2023-04-08T18:17:43.644Z,101526.66
2023-04-08T18:20:45.993Z,101527.34
2023-04-08T18:23:51.396Z,101524.31
2023-04-08T18:27:04.476Z,101529.25
2023-04-08T18:30:11.019Z,101526.91
2023-04-08T18:33:14.272Z,101524.06
2023-04-08T18:36:17.675Z,101532.56
2023-04-08T18:39:20.285Z,101542.03
2023-04-08T18:42:22.768Z,101517.78
2023-04-08T18:45:25.705Z,101537.66
2023-04-08T18:48:28.641Z,101538.41
2023-04-08T18:51:31.080Z,101539.00
2023-04-08T18:54:33.869Z,101507.72
2023-04-08T18:57:36.304Z,101532.81
2023-04-08T19:00:42.105Z,101540.56
2023-04-08T19:03:44.813Z,101539.56
2023-04-08T19:06:47.480Z,101542.28
2023-04-08T19:09:50.050Z,101472.78
2023-04-08T19:12:52.450Z,101535.63
2023-04-08T19:15:54.790Z,101533.56
2023-04-08T19:18:57.375Z,101532.38
2023-04-08T19:22:02.871Z,101534.03
2023-04-08T19:25:05.646Z,101533.22
2023-04-08T19:28:13.437Z,101543.13
2023-04-08T19:31:17.324Z,101536.38
2023-04-08T19:34:19.749Z,101546.66
2023-04-08T19:37:22.094Z,101537.16
2023-04-08T19:40:24.420Z,101539.63
2023-04-08T19:43:27.622Z,101536.56
2023-04-08T19:46:30.094Z,101539.69
2023-04-08T19:49:32.626Z,101528.00
2023-04-08T19:52:35.126Z,101530.00
2023-04-08T19:55:37.927Z,101534.88
2023-04-08T19:58:40.318Z,101544.75
2023-04-08T20:01:42.713Z,101534.25
2023-04-08T20:04:45.745Z,101549.88
2023-04-08T20:07:48.439Z,101545.84
2023-04-08T20:10:51.082Z,101547.41
2023-04-08T20:13:53.605Z,101545.84
2023-04-08T20:16:55.838Z,101545.84
2023-04-08T20:19:58.163Z,101547.53
2023-04-08T20:23:01.003Z,101548.03
2023-04-08T20:26:03.404Z,101549.47
2023-04-08T20:29:06.057Z,101547.19
2023-04-08T20:32:08.445Z,101548.47
2023-04-08T20:35:11.125Z,101551.16
2023-04-08T20:38:13.711Z,101551.22
2023-04-08T20:41:23.092Z,101550.00
2023-04-08T20:44:26.732Z,101537.78
2023-04-08T20:47:29.115Z,101545.53
2023-04-08T20:50:31.513Z,101544.09
2023-04-08T20:53:34.647Z,101541.28
2023-04-08T20:56:37.014Z,101532.78
2023-04-08T20:59:39.383Z,101553.53
2023-04-08T21:02:41.957Z,101558.63
2023-04-08T21:05:44.526Z,101555.47
2023-04-08T21:08:47.652Z,101552.78
2023-04-08T21:11:50.080Z,101559.25
2023-04-08T21:14:52.470Z,101566.09
2023-04-08T21:17:54.988Z,101555.94
2023-04-08T21:20:57.560Z,101560.31
2023-04-08T21:24:00.758Z,101572.53
2023-04-08T21:27:03.219Z,101556.91
2023-04-08T21:30:06.331Z,101569.00
2023-04-08T21:33:09.107Z,101565.03
2023-04-08T21:36:11.682Z,101548.25
2023-04-08T21:39:14.163Z,101566.09
2023-04-08T21:42:16.432Z,101563.03
2023-04-08T21:45:19.257Z,101565.81
2023-04-08T21:48:21.699Z,101567.84
2023-04-08T21:51:24.024Z,101565.53
2023-04-08T21:54:26.413Z,101560.47
2023-04-08T21:57:28.826Z,101553.03
2023-04-08T22:00:31.353Z,101558.25
2023-04-08T22:03:34.189Z,101556.91
2023-04-08T22:06:36.665Z,101553.06
2023-04-08T22:09:39.092Z,101551.72
2023-04-08T22:12:41.426Z,101557.25
2023-04-08T22:15:44.008Z,101550.25
2023-04-08T22:18:46.743Z,101517.28
2023-04-08T22:21:51.125Z,101550.66
2023-04-08T22:24:53.576Z,101542.19
2023-04-08T22:27:56.289Z,101540.31
2023-04-08T22:30:59.820Z,101535.66
2023-04-08T22:34:02.314Z,101535.66
2023-04-08T22:37:04.849Z,101533.00
2023-04-08T22:40:07.939Z,101537.78
2023-04-08T22:43:11.530Z,101541.56
2023-04-08T22:46:14.680Z,101544.31
2023-04-08T22:49:17.017Z,101552.81
2023-04-08T22:52:19.328Z,101540.53
2023-04-08T22:55:21.691Z,101553.00
2023-04-08T22:58:24.158Z,101545.56
2023-04-08T23:01:26.535Z,101530.41
2023-04-08T23:04:28.972Z,101540.16
2023-04-08T23:07:31.957Z,101538.72
2023-04-08T23:10:34.757Z,101517.59
2023-04-08T23:13:37.179Z,101534.81
2023-04-08T23:16:39.524Z,101531.50
2023-04-08T23:19:42.541Z,101537.09
2023-04-08T23:22:44.870Z,101533.75
2023-04-08T23:25:47.903Z,101518.44
2023-04-08T23:28:50.748Z,101531.38
2023-04-08T23:31:53.655Z,101517.88
2023-04-08T23:34:56.246Z,101532.00
2023-04-08T23:37:58.643Z,101531.19
2023-04-08T23:41:01.507Z,101535.59
2023-04-08T23:44:04.022Z,101526.41
2023-04-08T23:47:06.595Z,101529.50
2023-04-08T23:50:09.721Z,101530.94
2023-04-08T23:53:12.112Z,101532.00
2023-04-08T23:56:14.564Z,101528.69
2023-04-08T23:59:17.173Z,101530.34
